sensor_id;sensor_type;location;lat;lon;timestamp;pressure;altitude;pressure_sealevel;temperature;humidity
70411;BME280;57832;46.038;11.398;2022-11-20T00:01:14;96159.59;;;1.15;100.00
70411;BME280;57832;46.038;11.398;2022-11-20T00:03:40;96160.56;;;1.21;100.00
70411;BME280;57832;46.038;11.398;2022-11-20T00:06:12;96152.84;;;1.14;100.00
70411;BME280;57832;46.038;11.398;2022-11-20T00:08:38;96165.75;;;1.08;100.00
70411;BME280;57832;46.038;11.398;2022-11-20T00:11:07;96168.72;;;1.18;100.00
70411;BME280;57832;46.038;11.398;2022-11-20T00:13:33;96166.56;;;1.02;100.00
70411;BME280;57832;46.038;11.398;2022-11-20T00:16:00;96167.78;;;0.79;100.00
70411;BME280;57832;46.038;11.398;2022-11-20T00:18:27;96175.53;;;0.79;100.00
70411;BME280;57832;46.038;11.398;2022-11-20T00:20:52;96172.72;;;0.87;100.00
70411;BME280;57832;46.038;11.398;2022-11-20T00:23:18;96175.28;;;1.14;100.00
70411;BME280;57832;46.038;11.398;2022-11-20T00:25:44;96178.09;;;0.92;100.00
70411;BME280;57832;46.038;11.398;2022-11-20T00:28:09;96172.94;;;0.99;100.00
70411;BME280;57832;46.038;11.398;2022-11-20T00:30:35;96189.63;;;0.83;100.00
70411;BME280;57832;46.038;11.398;2022-11-20T00:33:00;96192.19;;;0.56;100.00
70411;BME280;57832;46.038;11.398;2022-11-20T00:35:26;96194.75;;;0.49;100.00
70411;BME280;57832;46.038;11.398;2022-11-20T00:37:51;96192.41;;;0.81;100.00
70411;BME280;57832;46.038;11.398;2022-11-20T00:40:17;96195.16;;;0.80;100.00
70411;BME280;57832;46.038;11.398;2022-11-20T00:42:42;96189.22;;;0.73;100.00
70411;BME280;57832;46.038;11.398;2022-11-20T00:45:08;96195.78;;;0.89;100.00
70411;BME280;57832;46.038;11.398;2022-11-20T00:47:33;96191.53;;;0.34;100.00
70411;BME280;57832;46.038;11.398;2022-11-20T00:49:59;96187.81;;;0.63;100.00
70411;BME280;57832;46.038;11.398;2022-11-20T00:52:24;96191.00;;;0.59;100.00
70411;BME280;57832;46.038;11.398;2022-11-20T00:54:50;96193.19;;;0.69;100.00
70411;BME280;57832;46.038;11.398;2022-11-20T00:57:15;96196.06;;;0.25;100.00
70411;BME280;57832;46.038;11.398;2022-11-20T00:59:41;96191.50;;;0.14;100.00
70411;BME280;57832;46.038;11.398;2022-11-20T01:02:06;96205.59;;;0.18;100.00
70411;BME280;57832;46.038;11.398;2022-11-20T01:04:32;96207.22;;;0.39;100.00
70411;BME280;57832;46.038;11.398;2022-11-20T01:06:57;96212.81;;;0.43;100.00
70411;BME280;57832;46.038;11.398;2022-11-20T01:09:23;96214.00;;;0.47;100.00
70411;BME280;57832;46.038;11.398;2022-11-20T01:11:49;96213.34;;;0.31;100.00
70411;BME280;57832;46.038;11.398;2022-11-20T01:14:17;96213.97;;;0.33;100.00
70411;BME280;57832;46.038;11.398;2022-11-20T01:16:46;96214.34;;;0.37;100.00
70411;BME280;57832;46.038;11.398;2022-11-20T01:19:14;96215.97;;;0.45;100.00
70411;BME280;57832;46.038;11.398;2022-11-20T01:21:42;96221.47;;;0.22;100.00
70411;BME280;57832;46.038;11.398;2022-11-20T01:24:11;96217.94;;;0.36;100.00
70411;BME280;57832;46.038;11.398;2022-11-20T01:26:39;96220.78;;;0.68;100.00
70411;BME280;57832;46.038;11.398;2022-11-20T01:29:06;96215.38;;;0.36;100.00
70411;BME280;57832;46.038;11.398;2022-11-20T01:31:35;96217.38;;;0.61;100.00
70411;BME280;57832;46.038;11.398;2022-11-20T01:34:03;96213.78;;;0.35;100.00
70411;BME280;57832;46.038;11.398;2022-11-20T01:36:32;96221.72;;;0.33;100.00
70411;BME280;57832;46.038;11.398;2022-11-20T01:39:03;96223.16;;;0.63;100.00
70411;BME280;57832;46.038;11.398;2022-11-20T01:41:33;96223.94;;;0.57;100.00
70411;BME280;57832;46.038;11.398;2022-11-20T01:44:21;96230.22;;;0.34;100.00
70411;BME280;57832;46.038;11.398;2022-11-20T01:46:55;96227.66;;;0.41;100.00
70411;BME280;57832;46.038;11.398;2022-11-20T01:49:29;96237.72;;;0.15;100.00
70411;BME280;57832;46.038;11.398;2022-11-20T01:52:03;96234.16;;;-0.32;100.00
70411;BME280;57832;46.038;11.398;2022-11-20T01:54:40;96230.94;;;0.08;100.00
70411;BME280;57832;46.038;11.398;2022-11-20T01:57:10;96229.94;;;0.09;100.00
70411;BME280;57832;46.038;11.398;2022-11-20T01:59:39;96217.44;;;-0.01;100.00
70411;BME280;57832;46.038;11.398;2022-11-20T02:02:07;96220.84;;;0.13;100.00
70411;BME280;57832;46.038;11.398;2022-11-20T02:04:33;96211.28;;;0.00;100.00
70411;BME280;57832;46.038;11.398;2022-11-20T02:07:04;96218.91;;;-0.20;100.00
70411;BME280;57832;46.038;11.398;2022-11-20T02:09:32;96225.06;;;-0.21;100.00
70411;BME280;57832;46.038;11.398;2022-11-20T02:11:58;96218.94;;;-0.13;100.00
70411;BME280;57832;46.038;11.398;2022-11-20T02:14:25;96221.53;;;-0.13;100.00
70411;BME280;57832;46.038;11.398;2022-11-20T02:16:51;96218.00;;;-0.06;100.00
70411;BME280;57832;46.038;11.398;2022-11-20T02:19:30;96226.28;;;-0.17;100.00
70411;BME280;57832;46.038;11.398;2022-11-20T02:24:24;96219.88;;;-0.28;100.00
70411;BME280;57832;46.038;11.398;2022-11-20T02:26:53;96214.25;;;-0.45;100.00
70411;BME280;57832;46.038;11.398;2022-11-20T02:29:25;96218.22;;;-0.01;100.00
70411;BME280;57832;46.038;11.398;2022-11-20T02:31:52;96209.78;;;-0.23;100.00
70411;BME280;57832;46.038;11.398;2022-11-20T02:34:19;96216.72;;;-0.23;100.00
70411;BME280;57832;46.038;11.398;2022-11-20T02:36:46;96218.16;;;-0.14;100.00
70411;BME280;57832;46.038;11.398;2022-11-20T02:39:11;96216.16;;;-0.19;100.00
70411;BME280;57832;46.038;11.398;2022-11-20T02:41:38;96222.81;;;0.11;100.00
70411;BME280;57832;46.038;11.398;2022-11-20T02:44:04;96224.56;;;0.04;100.00
70411;BME280;57832;46.038;11.398;2022-11-20T02:46:31;96219.88;;;-0.28;100.00
70411;BME280;57832;46.038;11.398;2022-11-20T02:48:56;96222.78;;;-0.38;100.00
70411;BME280;57832;46.038;11.398;2022-11-20T02:51:22;96219.34;;;-0.17;100.00
70411;BME280;57832;46.038;11.398;2022-11-20T02:53:47;96230.06;;;-0.13;100.00
70411;BME280;57832;46.038;11.398;2022-11-20T02:56:13;96213.91;;;-0.28;100.00
70411;BME280;57832;46.038;11.398;2022-11-20T02:58:39;96219.63;;;-0.40;100.00
70411;BME280;57832;46.038;11.398;2022-11-20T03:01:04;96223.06;;;-0.26;100.00
70411;BME280;57832;46.038;11.398;2022-11-20T03:03:30;96222.00;;;0.04;100.00
70411;BME280;57832;46.038;11.398;2022-11-20T03:05:55;96219.84;;;0.14;100.00
70411;BME280;57832;46.038;11.398;2022-11-20T03:08:23;96228.06;;;-0.11;100.00
70411;BME280;57832;46.038;11.398;2022-11-20T03:10:49;96225.31;;;-0.16;100.00
70411;BME280;57832;46.038;11.398;2022-11-20T03:13:14;96232.41;;;-0.18;100.00
70411;BME280;57832;46.038;11.398;2022-11-20T03:15:40;96233.94;;;-0.30;100.00
70411;BME280;57832;46.038;11.398;2022-11-20T03:18:05;96245.34;;;-0.46;100.00
70411;BME280;57832;46.038;11.398;2022-11-20T03:20:32;96240.94;;;-0.53;100.00
70411;BME280;57832;46.038;11.398;2022-11-20T03:22:57;96239.78;;;-0.50;100.00
70411;BME280;57832;46.038;11.398;2022-11-20T03:25:23;96242.03;;;-0.69;100.00
70411;BME280;57832;46.038;11.398;2022-11-20T03:27:48;96249.38;;;-0.37;100.00
70411;BME280;57832;46.038;11.398;2022-11-20T03:30:14;96247.94;;;-0.46;100.00
70411;BME280;57832;46.038;11.398;2022-11-20T03:32:40;96251.22;;;-0.59;100.00
70411;BME280;57832;46.038;11.398;2022-11-20T03:35:06;96253.00;;;-0.60;100.00
70411;BME280;57832;46.038;11.398;2022-11-20T03:37:32;96254.94;;;-0.62;100.00
70411;BME280;57832;46.038;11.398;2022-11-20T03:39:57;96249.25;;;-0.57;100.00
70411;BME280;57832;46.038;11.398;2022-11-20T03:42:23;96254.84;;;-0.47;100.00
70411;BME280;57832;46.038;11.398;2022-11-20T03:45:07;96252.50;;;-0.42;100.00
70411;BME280;57832;46.038;11.398;2022-11-20T03:47:32;96250.72;;;-0.70;100.00
70411;BME280;57832;46.038;11.398;2022-11-20T03:49:58;96254.72;;;-0.67;100.00
70411;BME280;57832;46.038;11.398;2022-11-20T03:52:23;96255.69;;;-0.96;100.00
70411;BME280;57832;46.038;11.398;2022-11-20T03:54:49;96262.78;;;-0.77;100.00
70411;BME280;57832;46.038;11.398;2022-11-20T03:57:14;96272.69;;;-0.74;100.00
70411;BME280;57832;46.038;11.398;2022-11-20T03:59:40;96275.28;;;-0.74;100.00
70411;BME280;57832;46.038;11.398;2022-11-20T04:02:05;96272.16;;;-0.69;100.00
70411;BME280;57832;46.038;11.398;2022-11-20T04:04:31;96277.69;;;-0.65;100.00
70411;BME280;57832;46.038;11.398;2022-11-20T04:06:56;96276.97;;;-0.59;100.00
70411;BME280;57832;46.038;11.398;2022-11-20T04:09:22;96274.19;;;-0.58;100.00
70411;BME280;57832;46.038;11.398;2022-11-20T04:11:47;96276.19;;;-0.81;100.00
70411;BME280;57832;46.038;11.398;2022-11-20T04:14:15;96270.06;;;-0.52;100.00
70411;BME280;57832;46.038;11.398;2022-11-20T04:16:42;96272.50;;;-0.72;100.00
70411;BME280;57832;46.038;11.398;2022-11-20T04:19:13;96278.47;;;-0.72;100.00
70411;BME280;57832;46.038;11.398;2022-11-20T04:21:39;96278.38;;;-0.85;100.00
70411;BME280;57832;46.038;11.398;2022-11-20T04:24:05;96280.47;;;-0.67;100.00
70411;BME280;57832;46.038;11.398;2022-11-20T04:26:31;96278.53;;;-1.08;100.00
70411;BME280;57832;46.038;11.398;2022-11-20T04:28:57;96276.66;;;-0.99;100.00
70411;BME280;57832;46.038;11.398;2022-11-20T04:31:28;96271.75;;;-0.94;100.00
70411;BME280;57832;46.038;11.398;2022-11-20T04:33:54;96266.97;;;-0.97;100.00
70411;BME280;57832;46.038;11.398;2022-11-20T04:36:22;96273.84;;;-1.05;100.00
70411;BME280;57832;46.038;11.398;2022-11-20T04:38:52;96273.13;;;-0.70;100.00
70411;BME280;57832;46.038;11.398;2022-11-20T04:41:19;96269.66;;;-1.06;100.00
70411;BME280;57832;46.038;11.398;2022-11-20T04:43:55;96275.94;;;-0.93;100.00
70411;BME280;57832;46.038;11.398;2022-11-20T04:46:25;96277.25;;;-0.97;100.00
70411;BME280;57832;46.038;11.398;2022-11-20T04:48:52;96277.50;;;-0.92;100.00
70411;BME280;57832;46.038;11.398;2022-11-20T04:51:17;96266.28;;;-0.85;100.00
70411;BME280;57832;46.038;11.398;2022-11-20T04:53:43;96274.19;;;-0.86;100.00
70411;BME280;57832;46.038;11.398;2022-11-20T04:56:10;96271.63;;;-0.86;100.00
70411;BME280;57832;46.038;11.398;2022-11-20T04:58:37;96275.31;;;-0.95;100.00
70411;BME280;57832;46.038;11.398;2022-11-20T05:01:13;96276.09;;;-0.95;100.00
70411;BME280;57832;46.038;11.398;2022-11-20T05:03:41;96279.09;;;-0.91;100.00
70411;BME280;57832;46.038;11.398;2022-11-20T05:06:08;96277.84;;;-0.74;100.00
70411;BME280;57832;46.038;11.398;2022-11-20T05:08:34;96283.06;;;-0.67;100.00
70411;BME280;57832;46.038;11.398;2022-11-20T05:11:03;96277.59;;;-0.57;100.00
70411;BME280;57832;46.038;11.398;2022-11-20T05:13:29;96276.97;;;-0.88;100.00
70411;BME280;57832;46.038;11.398;2022-11-20T05:15:55;96276.53;;;-1.13;100.00
70411;BME280;57832;46.038;11.398;2022-11-20T05:18:22;96276.28;;;-0.96;100.00
70411;BME280;57832;46.038;11.398;2022-11-20T05:20:54;96282.16;;;-1.24;100.00
70411;BME280;57832;46.038;11.398;2022-11-20T05:23:20;96281.06;;;-1.37;100.00
70411;BME280;57832;46.038;11.398;2022-11-20T05:25:45;96280.81;;;-1.42;100.00
70411;BME280;57832;46.038;11.398;2022-11-20T05:28:11;96291.84;;;-1.26;100.00
70411;BME280;57832;46.038;11.398;2022-11-20T05:30:36;96297.31;;;-1.14;100.00
70411;BME280;57832;46.038;11.398;2022-11-20T05:33:02;96288.13;;;-1.02;100.00
70411;BME280;57832;46.038;11.398;2022-11-20T05:35:27;96292.69;;;-0.97;100.00
70411;BME280;57832;46.038;11.398;2022-11-20T05:37:53;96291.66;;;-1.25;100.00
70411;BME280;57832;46.038;11.398;2022-11-20T05:40:18;96293.06;;;-1.01;100.00
70411;BME280;57832;46.038;11.398;2022-11-20T05:42:43;96296.44;;;-1.00;100.00
70411;BME280;57832;46.038;11.398;2022-11-20T05:45:09;96301.69;;;-0.93;100.00
70411;BME280;57832;46.038;11.398;2022-11-20T05:47:35;96295.06;;;-1.03;100.00
70411;BME280;57832;46.038;11.398;2022-11-20T05:50:01;96300.56;;;-1.06;100.00
70411;BME280;57832;46.038;11.398;2022-11-20T05:52:30;96304.41;;;-0.95;100.00
70411;BME280;57832;46.038;11.398;2022-11-20T05:54:56;96308.59;;;-0.94;100.00
70411;BME280;57832;46.038;11.398;2022-11-20T05:57:22;96304.00;;;-0.98;100.00
70411;BME280;57832;46.038;11.398;2022-11-20T05:59:47;96311.09;;;-1.22;100.00
70411;BME280;57832;46.038;11.398;2022-11-20T06:02:13;96309.44;;;-1.30;100.00
70411;BME280;57832;46.038;11.398;2022-11-20T06:04:39;96318.13;;;-1.31;100.00
70411;BME280;57832;46.038;11.398;2022-11-20T06:07:05;96320.41;;;-1.58;100.00
70411;BME280;57832;46.038;11.398;2022-11-20T06:09:31;96327.69;;;-1.76;100.00
70411;BME280;57832;46.038;11.398;2022-11-20T06:11:56;96328.22;;;-1.66;100.00
70411;BME280;57832;46.038;11.398;2022-11-20T06:14:22;96338.03;;;-1.40;100.00
70411;BME280;57832;46.038;11.398;2022-11-20T06:16:47;96335.16;;;-1.30;100.00
70411;BME280;57832;46.038;11.398;2022-11-20T06:19:13;96331.06;;;-1.24;100.00
70411;BME280;57832;46.038;11.398;2022-11-20T06:21:38;96336.25;;;-1.39;100.00
70411;BME280;57832;46.038;11.398;2022-11-20T06:24:04;96344.94;;;-1.25;100.00
70411;BME280;57832;46.038;11.398;2022-11-20T06:26:30;96338.88;;;-1.32;100.00
70411;BME280;57832;46.038;11.398;2022-11-20T06:28:55;96345.75;;;-1.40;100.00
70411;BME280;57832;46.038;11.398;2022-11-20T06:31:22;96350.63;;;-1.45;100.00
70411;BME280;57832;46.038;11.398;2022-11-20T06:33:48;96352.34;;;-1.67;100.00
70411;BME280;57832;46.038;11.398;2022-11-20T06:36:15;96356.97;;;-1.26;100.00
70411;BME280;57832;46.038;11.398;2022-11-20T06:38:41;96349.31;;;-1.19;100.00
70411;BME280;57832;46.038;11.398;2022-11-20T06:41:11;96354.63;;;-1.42;100.00
70411;BME280;57832;46.038;11.398;2022-11-20T06:43:37;96357.78;;;-1.40;100.00
70411;BME280;57832;46.038;11.398;2022-11-20T06:46:03;96356.31;;;-1.35;100.00
70411;BME280;57832;46.038;11.398;2022-11-20T06:48:29;96353.47;;;-1.40;100.00
70411;BME280;57832;46.038;11.398;2022-11-20T06:50:55;96352.97;;;-1.28;100.00
70411;BME280;57832;46.038;11.398;2022-11-20T06:53:22;96359.38;;;-1.24;100.00
70411;BME280;57832;46.038;11.398;2022-11-20T06:55:49;96368.03;;;-1.10;100.00
70411;BME280;57832;46.038;11.398;2022-11-20T06:58:15;96370.75;;;-0.97;100.00
70411;BME280;57832;46.038;11.398;2022-11-20T07:00:42;96378.44;;;-1.19;100.00
70411;BME280;57832;46.038;11.398;2022-11-20T07:03:09;96376.97;;;-1.28;100.00
70411;BME280;57832;46.038;11.398;2022-11-20T07:05:35;96376.44;;;-1.38;100.00
70411;BME280;57832;46.038;11.398;2022-11-20T07:08:02;96380.72;;;-1.60;100.00
70411;BME280;57832;46.038;11.398;2022-11-20T07:10:28;96384.25;;;-1.61;100.00
70411;BME280;57832;46.038;11.398;2022-11-20T07:12:54;96382.66;;;-1.47;100.00
70411;BME280;57832;46.038;11.398;2022-11-20T07:15:22;96374.94;;;-1.47;100.00
70411;BME280;57832;46.038;11.398;2022-11-20T07:17:48;96377.22;;;-1.38;100.00
70411;BME280;57832;46.038;11.398;2022-11-20T07:20:14;96385.09;;;-1.24;100.00
70411;BME280;57832;46.038;11.398;2022-11-20T07:22:40;96388.66;;;-1.25;100.00
70411;BME280;57832;46.038;11.398;2022-11-20T07:25:07;96387.47;;;-1.23;100.00
70411;BME280;57832;46.038;11.398;2022-11-20T07:27:33;96386.44;;;-1.28;100.00
70411;BME280;57832;46.038;11.398;2022-11-20T07:29:59;96389.00;;;-1.28;100.00
70411;BME280;57832;46.038;11.398;2022-11-20T07:32:26;96386.19;;;-0.97;100.00
70411;BME280;57832;46.038;11.398;2022-11-20T07:34:52;96399.47;;;-0.78;100.00
70411;BME280;57832;46.038;11.398;2022-11-20T07:37:17;96394.13;;;-0.77;100.00
70411;BME280;57832;46.038;11.398;2022-11-20T07:39:43;96396.50;;;-0.97;100.00
70411;BME280;57832;46.038;11.398;2022-11-20T07:42:09;96401.91;;;-0.92;100.00
70411;BME280;57832;46.038;11.398;2022-11-20T07:44:35;96404.47;;;-0.92;100.00
70411;BME280;57832;46.038;11.398;2022-11-20T07:47:01;96406.91;;;-1.05;100.00
70411;BME280;57832;46.038;11.398;2022-11-20T07:49:27;96402.44;;;-0.96;100.00
70411;BME280;57832;46.038;11.398;2022-11-20T07:51:52;96403.31;;;-0.89;100.00
70411;BME280;57832;46.038;11.398;2022-11-20T07:54:19;96405.50;;;-0.86;100.00
70411;BME280;57832;46.038;11.398;2022-11-20T07:56:45;96412.75;;;-0.75;100.00
70411;BME280;57832;46.038;11.398;2022-11-20T07:59:11;96413.38;;;-0.51;100.00
70411;BME280;57832;46.038;11.398;2022-11-20T08:01:40;96409.81;;;-0.50;100.00
70411;BME280;57832;46.038;11.398;2022-11-20T08:04:06;96414.91;;;-0.57;100.00
70411;BME280;57832;46.038;11.398;2022-11-20T08:06:31;96416.13;;;-0.53;100.00
70411;BME280;57832;46.038;11.398;2022-11-20T08:08:57;96415.44;;;-0.61;100.00
70411;BME280;57832;46.038;11.398;2022-11-20T08:11:23;96416.44;;;-0.62;100.00
70411;BME280;57832;46.038;11.398;2022-11-20T08:14:06;96413.75;;;-0.54;100.00
70411;BME280;57832;46.038;11.398;2022-11-20T08:16:43;96414.78;;;-0.70;100.00
70411;BME280;57832;46.038;11.398;2022-11-20T08:19:10;96419.03;;;-0.41;100.00
70411;BME280;57832;46.038;11.398;2022-11-20T08:21:36;96422.06;;;-0.52;100.00
70411;BME280;57832;46.038;11.398;2022-11-20T08:24:07;96415.53;;;-0.55;100.00
70411;BME280;57832;46.038;11.398;2022-11-20T08:26:36;96415.63;;;-0.63;100.00
70411;BME280;57832;46.038;11.398;2022-11-20T08:29:03;96422.97;;;-0.66;100.00
70411;BME280;57832;46.038;11.398;2022-11-20T08:31:29;96423.69;;;-0.51;100.00
70411;BME280;57832;46.038;11.398;2022-11-20T08:33:55;96422.03;;;-0.37;100.00
70411;BME280;57832;46.038;11.398;2022-11-20T08:36:21;96421.84;;;-0.57;100.00
70411;BME280;57832;46.038;11.398;2022-11-20T08:38:55;96421.53;;;-0.47;100.00
70411;BME280;57832;46.038;11.398;2022-11-20T08:41:21;96427.25;;;-0.30;100.00
70411;BME280;57832;46.038;11.398;2022-11-20T08:44:09;96425.84;;;-0.55;100.00
70411;BME280;57832;46.038;11.398;2022-11-20T08:46:42;96426.00;;;-0.56;100.00
70411;BME280;57832;46.038;11.398;2022-11-20T08:49:10;96425.72;;;-0.46;100.00
70411;BME280;57832;46.038;11.398;2022-11-20T08:51:37;96422.13;;;-0.45;100.00
70411;BME280;57832;46.038;11.398;2022-11-20T08:54:04;96429.16;;;-0.61;100.00
70411;BME280;57832;46.038;11.398;2022-11-20T08:56:29;96434.88;;;-0.80;100.00
70411;BME280;57832;46.038;11.398;2022-11-20T08:58:55;96439.56;;;-0.69;100.00
70411;BME280;57832;46.038;11.398;2022-11-20T09:01:21;96429.66;;;-0.51;100.00
70411;BME280;57832;46.038;11.398;2022-11-20T09:03:48;96435.72;;;-0.37;100.00
70411;BME280;57832;46.038;11.398;2022-11-20T09:06:13;96432.81;;;-0.27;100.00
70411;BME280;57832;46.038;11.398;2022-11-20T09:08:39;96428.94;;;-0.16;100.00
70411;BME280;57832;46.038;11.398;2022-11-20T09:11:05;96427.19;;;-0.37;100.00
70411;BME280;57832;46.038;11.398;2022-11-20T09:13:31;96420.09;;;-0.28;100.00
70411;BME280;57832;46.038;11.398;2022-11-20T09:15:59;96425.06;;;-0.27;100.00
70411;BME280;57832;46.038;11.398;2022-11-20T09:18:26;96422.69;;;-0.28;100.00
70411;BME280;57832;46.038;11.398;2022-11-20T09:20:55;96420.63;;;-0.40;100.00
70411;BME280;57832;46.038;11.398;2022-11-20T09:23:21;96427.50;;;-0.25;100.00
70411;BME280;57832;46.038;11.398;2022-11-20T09:25:46;96433.91;;;-0.36;100.00
70411;BME280;57832;46.038;11.398;2022-11-20T09:28:12;96425.84;;;-0.33;100.00
70411;BME280;57832;46.038;11.398;2022-11-20T09:30:37;96429.75;;;-0.15;100.00
70411;BME280;57832;46.038;11.398;2022-11-20T09:33:04;96428.44;;;-0.05;100.00
70411;BME280;57832;46.038;11.398;2022-11-20T09:35:30;96424.63;;;-0.09;100.00
70411;BME280;57832;46.038;11.398;2022-11-20T09:37:55;96429.75;;;-0.37;100.00
70411;BME280;57832;46.038;11.398;2022-11-20T09:40:23;96431.19;;;-0.35;100.00
70411;BME280;57832;46.038;11.398;2022-11-20T09:43:01;96431.94;;;0.16;100.00
70411;BME280;57832;46.038;11.398;2022-11-20T09:45:39;96429.78;;;0.20;100.00
70411;BME280;57832;46.038;11.398;2022-11-20T09:48:15;96421.50;;;0.24;100.00
70411;BME280;57832;46.038;11.398;2022-11-20T09:50:57;96414.25;;;0.13;100.00
70411;BME280;57832;46.038;11.398;2022-11-20T09:56:14;96405.34;;;0.15;100.00
70411;BME280;57832;46.038;11.398;2022-11-20T09:58:47;96404.66;;;0.28;100.00
70411;BME280;57832;46.038;11.398;2022-11-20T10:04:12;96395.22;;;0.49;100.00
70411;BME280;57832;46.038;11.398;2022-11-20T10:06:47;96390.22;;;0.41;100.00
70411;BME280;57832;46.038;11.398;2022-11-20T10:09:29;96402.03;;;0.63;100.00
70411;BME280;57832;46.038;11.398;2022-11-20T10:26:20;96353.16;;;8.67;100.00
70411;BME280;57832;46.038;11.398;2022-11-20T10:33:51;96341.38;;;16.79;68.94
70411;BME280;57832;46.038;11.398;2022-11-20T10:36:21;96333.53;;;15.91;86.52
70411;BME280;57832;46.038;11.398;2022-11-20T10:39:39;96337.31;;;11.92;100.00
70411;BME280;57832;46.038;11.398;2022-11-20T10:41:41;96338.69;;;10.11;100.00
70411;BME280;57832;46.038;11.398;2022-11-20T10:44:16;96333.13;;;12.07;100.00
70411;BME280;57832;46.038;11.398;2022-11-20T10:47:01;96333.69;;;10.52;100.00
70411;BME280;57832;46.038;11.398;2022-11-20T10:49:27;96326.28;;;11.54;100.00
70411;BME280;57832;46.038;11.398;2022-11-20T10:52:09;96321.16;;;12.45;100.00
70411;BME280;57832;46.038;11.398;2022-11-20T11:00:07;96312.06;;;11.86;100.00
70411;BME280;57832;46.038;11.398;2022-11-20T11:02:46;96302.50;;;14.49;95.32
70411;BME280;57832;46.038;11.398;2022-11-20T11:08:00;96292.25;;;20.37;51.48
70411;BME280;57832;46.038;11.398;2022-11-20T11:13:00;96289.69;;;19.54;44.47
70411;BME280;57832;46.038;11.398;2022-11-20T11:15:30;96287.91;;;18.04;45.80
70411;BME280;57832;46.038;11.398;2022-11-20T11:18:01;96293.84;;;14.19;100.00
70411;BME280;57832;46.038;11.398;2022-11-20T11:20:26;96280.47;;;15.35;74.79
70411;BME280;57832;46.038;11.398;2022-11-20T11:22:59;96275.56;;;15.75;62.03
70411;BME280;57832;46.038;11.398;2022-11-20T11:25:33;96283.03;;;14.69;64.05
70411;BME280;57832;46.038;11.398;2022-11-20T11:28:21;96267.72;;;14.23;66.49
70411;BME280;57832;46.038;11.398;2022-11-20T11:30:47;96270.78;;;15.11;58.28
70411;BME280;57832;46.038;11.398;2022-11-20T11:33:29;96268.25;;;15.72;53.68
70411;BME280;57832;46.038;11.398;2022-11-20T11:35:58;96261.56;;;16.35;47.10
70411;BME280;57832;46.038;11.398;2022-11-20T11:38:38;96261.34;;;16.04;44.26
70411;BME280;57832;46.038;11.398;2022-11-20T11:41:06;96248.38;;;16.58;43.46
70411;BME280;57832;46.038;11.398;2022-11-20T11:43:36;96244.66;;;19.23;38.17
70411;BME280;57832;46.038;11.398;2022-11-20T11:49:15;96237.94;;;18.82;35.04
70411;BME280;57832;46.038;11.398;2022-11-20T11:54:31;96230.13;;;15.59;43.15
70411;BME280;57832;46.038;11.398;2022-11-20T11:57:05;96235.72;;;15.25;46.63
70411;BME280;57832;46.038;11.398;2022-11-20T12:00:08;96232.34;;;15.05;48.43
70411;BME280;57832;46.038;11.398;2022-11-20T12:02:39;96225.78;;;15.35;45.42
70411;BME280;57832;46.038;11.398;2022-11-20T12:16:14;96219.88;;;17.77;40.37
70411;BME280;57832;46.038;11.398;2022-11-20T12:18:43;96220.44;;;19.90;35.92
70411;BME280;57832;46.038;11.398;2022-11-20T12:21:33;96221.78;;;17.77;37.56
70411;BME280;57832;46.038;11.398;2022-11-20T12:34:52;96209.59;;;14.90;47.99
70411;BME280;57832;46.038;11.398;2022-11-20T12:40:34;96196.19;;;14.67;49.37
70411;BME280;57832;46.038;11.398;2022-11-20T12:43:22;96193.75;;;14.90;49.90
70411;BME280;57832;46.038;11.398;2022-11-20T12:49:12;96185.41;;;17.77;40.38
70411;BME280;57832;46.038;11.398;2022-11-20T12:57:15;96191.19;;;13.55;55.59
70411;BME280;57832;46.038;11.398;2022-11-20T13:00:06;96194.06;;;12.95;70.47
70411;BME280;57832;46.038;11.398;2022-11-20T13:02:58;96194.72;;;12.76;69.34
70411;BME280;57832;46.038;11.398;2022-11-20T13:05:43;96184.00;;;12.23;72.00
70411;BME280;57832;46.038;11.398;2022-11-20T13:08:36;96175.78;;;12.40;80.02
70411;BME280;57832;46.038;11.398;2022-11-20T13:16:18;96180.41;;;11.98;82.92
70411;BME280;57832;46.038;11.398;2022-11-20T13:18:47;96184.19;;;11.61;93.42
70411;BME280;57832;46.038;11.398;2022-11-20T13:21:15;96193.41;;;11.53;97.73
70411;BME280;57832;46.038;11.398;2022-11-20T13:23:40;96183.94;;;11.57;93.75
70411;BME280;57832;46.038;11.398;2022-11-20T13:26:19;96184.78;;;11.16;89.91
70411;BME280;57832;46.038;11.398;2022-11-20T13:28:47;96181.13;;;11.28;99.56
70411;BME280;57832;46.038;11.398;2022-11-20T13:31:31;96179.81;;;11.10;100.00
70411;BME280;57832;46.038;11.398;2022-11-20T13:33:57;96170.88;;;10.90;100.00
70411;BME280;57832;46.038;11.398;2022-11-20T13:36:27;96160.41;;;10.80;98.23
70411;BME280;57832;46.038;11.398;2022-11-20T13:38:55;96157.25;;;10.62;99.68
70411;BME280;57832;46.038;11.398;2022-11-20T13:41:28;96162.22;;;10.59;100.00
70411;BME280;57832;46.038;11.398;2022-11-20T13:44:24;96158.28;;;10.51;100.00
70411;BME280;57832;46.038;11.398;2022-11-20T13:46:50;96150.94;;;10.63;100.00
70411;BME280;57832;46.038;11.398;2022-11-20T13:49:37;96152.97;;;10.30;100.00
70411;BME280;57832;46.038;11.398;2022-11-20T13:55:12;96150.31;;;10.15;100.00
70411;BME280;57832;46.038;11.398;2022-11-20T14:00:21;96157.81;;;9.85;100.00
70411;BME280;57832;46.038;11.398;2022-11-20T14:03:07;96161.16;;;9.70;100.00
70411;BME280;57832;46.038;11.398;2022-11-20T14:05:40;96152.50;;;9.70;100.00
70411;BME280;57832;46.038;11.398;2022-11-20T14:08:23;96162.44;;;9.63;100.00
70411;BME280;57832;46.038;11.398;2022-11-20T14:10:49;96172.06;;;9.52;100.00
70411;BME280;57832;46.038;11.398;2022-11-20T14:13:19;96169.41;;;9.47;100.00
70411;BME280;57832;46.038;11.398;2022-11-20T14:15:45;96156.81;;;9.39;100.00
70411;BME280;57832;46.038;11.398;2022-11-20T14:18:19;96171.44;;;9.40;100.00
70411;BME280;57832;46.038;11.398;2022-11-20T14:20:45;96171.84;;;9.16;100.00